Time;durP1;ratioP1;P1;durP2;ratioP2;P2;SDS_P1;SDS_P2;PMS_P1;PMS_P2;Temp;Humidity;BMP_temperature;BMP_pressure;BME280_temperature;BME280_humidity;BME280_pressure;Samples;Min_cycle;Max_cycle;Signal;HPM_P1;HPM_P2
2022/08/07 00:02:12;;;;;;;5.30;4.20;;;;;;;20.00;77.84;98622.25;106100;1274;24321;-82
2022/08/07 00:05:01;;;;;;;4.90;4.10;;;;;;;19.99;77.69;98620.35;106063;1274;22875;-83
2022/08/07 00:07:33;;;;;;;6.60;4.60;;;;;;;19.91;77.42;98619.40;105913;1274;25340;-84
2022/08/07 00:10:08;;;;;;;8.10;4.60;;;;;;;19.79;77.38;98622.29;105931;1274;24253;-83
2022/08/07 00:12:54;;;;;;;6.20;4.50;;;;;;;19.69;77.40;98618.92;106137;1274;22545;-84
2022/08/07 00:15:31;;;;;;;5.80;4.70;;;;;;;19.63;77.48;98620.91;105916;1275;22550;-83
2022/08/07 00:18:05;;;;;;;6.70;4.00;;;;;;;19.63;77.42;98618.39;106071;1274;25337;-83
2022/08/07 00:20:33;;;;;;;4.50;3.70;;;;;;;19.63;77.21;98621.27;106034;1274;22532;-83
2022/08/07 00:23:05;;;;;;;6.40;4.30;;;;;;;19.64;76.74;98625.14;106062;1274;24272;-83
2022/08/07 00:25:35;;;;;;;5.60;3.80;;;;;;;19.53;76.55;98626.80;106163;1274;24214;-83
2022/08/07 00:28:08;;;;;;;6.80;4.50;;;;;;;19.43;76.52;98625.38;107247;1275;22607;-83
2022/08/07 00:30:37;;;;;;;5.20;3.40;;;;;;;19.43;76.66;98626.47;106248;1273;25322;-83
2022/08/07 00:33:07;;;;;;;4.90;3.80;;;;;;;19.46;76.78;98627.43;106105;1274;24218;-83
2022/08/07 00:35:36;;;;;;;6.70;3.80;;;;;;;19.49;76.14;98626.30;106115;1274;24444;-84
2022/08/07 00:38:05;;;;;;;7.60;3.70;;;;;;;19.42;74.92;98627.93;106058;1274;23933;-83
2022/08/07 00:40:33;;;;;;;7.20;3.80;;;;;;;19.32;75.05;98635.54;106095;1274;24406;-82
2022/08/07 00:43:10;;;;;;;;;;;;;;;19.25;75.87;98632.52;105930;1277;26484;-82
2022/08/07 00:46:00;;;;;;;8.70;3.80;;;;;;;19.20;75.08;98631.48;106150;1274;25407;-84
2022/08/07 00:48:29;;;;;;;10.50;4.20;;;;;;;19.13;75.52;98632.42;106084;1274;22525;-82
2022/08/07 00:51:01;;;;;;;7.00;3.20;;;;;;;18.94;74.87;98631.10;106039;1274;25337;-82
2022/08/07 00:53:30;;;;;;;6.00;3.60;;;;;;;18.77;75.96;98626.85;105893;1274;22580;-82
2022/08/07 00:56:17;;;;;;;5.90;3.40;;;;;;;18.81;76.28;98621.38;105963;1274;24083;-83
2022/08/07 00:58:46;;;;;;;5.20;3.20;;;;;;;18.83;76.16;98626.05;106049;1274;22845;-82
2022/08/07 01:01:19;;;;;;;7.20;3.30;;;;;;;18.78;75.85;98627.48;105844;1274;24361;-82
2022/08/07 01:03:50;;;;;;;5.90;3.10;;;;;;;18.65;75.76;98629.66;105998;1274;24273;-82
2022/08/07 01:06:28;;;;;;;8.30;3.20;;;;;;;18.49;75.63;98626.96;105909;1274;23916;-83
2022/08/07 01:08:57;;;;;;;6.50;3.70;;;;;;;18.47;76.47;98623.84;105894;1274;25637;-82
2022/08/07 01:11:29;;;;;;;7.00;3.40;;;;;;;18.53;76.40;98625.08;106091;1274;25980;-83
2022/08/07 01:14:20;;;;;;;7.40;3.60;;;;;;;18.56;75.79;98620.77;105961;1274;26488;-83
2022/08/07 01:16:56;;;;;;;3.60;3.20;;;;;;;18.58;75.67;98622.99;106039;1274;25238;-83
2022/08/07 01:19:29;;;;;;;7.60;3.70;;;;;;;18.61;75.73;98626.41;106032;1274;25309;-85
2022/08/07 01:22:01;;;;;;;5.00;3.60;;;;;;;18.65;75.76;98626.05;106158;1271;25454;-83
2022/08/07 01:24:36;;;;;;;5.90;3.30;;;;;;;18.65;75.44;98622.54;106089;1271;25344;-85
2022/08/07 01:27:05;;;;;;;3.40;2.80;;;;;;;18.61;75.59;98621.34;106175;1271;22694;-82
2022/08/07 01:29:48;;;;;;;6.30;3.30;;;;;;;18.63;75.35;98623.35;106271;1270;22688;-83
2022/08/07 01:32:19;;;;;;;4.60;2.60;;;;;;;18.58;75.05;98623.17;106273;1271;25337;-84
2022/08/07 01:34:51;;;;;;;7.10;3.70;;;;;;;18.57;75.29;98622.34;106355;1271;25297;-84
2022/08/07 01:37:20;;;;;;;6.30;3.60;;;;;;;18.55;75.40;98615.89;106455;1271;22696;-87
2022/08/07 01:39:51;;;;;;;6.80;3.30;;;;;;;18.57;75.20;98619.00;106453;1271;25309;-83
2022/08/07 01:42:29;;;;;;;5.80;3.90;;;;;;;18.44;74.22;98619.77;106678;1271;22544;-82
2022/08/07 01:45:20;;;;;;;4.60;3.10;;;;;;;18.01;74.19;98618.65;106108;1271;22878;-81
2022/08/07 01:48:03;;;;;;;6.70;3.60;;;;;;;17.62;74.69;98619.20;106383;1271;22612;-84
2022/08/07 01:50:57;;;;;;;6.60;3.30;;;;;;;17.49;75.29;98612.66;106342;1271;24211;-85
2022/08/07 01:53:38;;;;;;;6.40;3.20;;;;;;;17.53;75.86;98611.20;106150;1271;25922;-83
2022/08/07 01:56:37;;;;;;;5.40;3.30;;;;;;;17.68;75.95;98613.27;106395;1271;22681;-83
2022/08/07 01:59:10;;;;;;;4.40;3.30;;;;;;;17.80;75.75;98608.56;106113;1271;22567;-82
2022/08/07 02:01:49;;;;;;;7.30;3.70;;;;;;;17.70;74.86;98608.79;106235;1271;22849;-81
2022/08/07 02:04:48;;;;;;;7.60;3.30;;;;;;;17.28;74.31;98614.91;106306;1271;25345;-81
2022/08/07 02:07:33;;;;;;;5.20;3.60;;;;;;;17.05;75.66;98606.92;106251;1271;22695;-82
2022/08/07 02:10:25;;;;;;;5.30;3.50;;;;;;;16.99;76.20;98608.64;106246;1271;25335;-82
2022/08/07 02:12:57;;;;;;;6.20;3.70;;;;;;;17.04;76.42;98609.69;106140;1271;22755;-82
2022/08/07 02:15:33;;;;;;;6.90;3.10;;;;;;;17.02;76.19;98606.36;106260;1271;24234;-83
2022/08/07 02:18:04;;;;;;;7.40;3.20;;;;;;;17.06;76.32;98607.60;106218;1271;24778;-83
2022/08/07 02:20:33;;;;;;;4.20;3.30;;;;;;;17.09;76.10;98607.66;106339;1271;25346;-83
2022/08/07 02:23:04;;;;;;;5.00;3.50;;;;;;;17.06;76.36;98611.16;106288;1271;25220;-82
2022/08/07 02:25:35;;;;;;;5.40;3.60;;;;;;;17.04;76.08;98608.15;106201;1271;22723;-81
2022/08/07 02:28:26;;;;;;;4.80;3.40;;;;;;;16.86;75.94;98610.02;106312;1271;22849;-81
2022/08/07 02:31:01;;;;;;;5.90;3.40;;;;;;;16.73;76.10;98612.91;106404;1271;22639;-84
2022/08/07 02:33:51;;;;;;;4.20;3.30;;;;;;;16.74;76.43;98614.33;106217;1271;24182;-81
2022/08/07 02:36:32;;;;;;;4.20;3.10;;;;;;;16.81;76.33;98615.40;106421;1271;25302;-83
2022/08/07 02:39:09;;;;;;;5.90;3.50;;;;;;;16.87;76.52;98616.41;106407;1268;22649;-81
2022/08/07 02:41:58;;;;;;;5.40;3.40;;;;;;;16.94;76.59;98619.84;106380;1271;25383;-82
2022/08/07 02:44:27;;;;;;;6.70;3.50;;;;;;;17.02;76.84;98621.52;107225;1271;25367;-83
2022/08/07 02:47:04;;;;;;;3.90;3.00;;;;;;;17.24;77.13;98612.58;107950;1271;22545;-83
2022/08/07 02:49:33;;;;;;;7.10;3.40;;;;;;;17.45;76.28;98613.98;106212;1271;23206;-83
2022/08/07 02:52:30;;;;;;;5.80;3.40;;;;;;;17.59;75.39;98617.84;106554;1271;22557;-82
2022/08/07 02:55:04;;;;;;;4.50;3.30;;;;;;;17.50;74.37;98618.56;107535;1271;25341;-82
2022/08/07 02:57:57;;;;;;;4.60;3.00;;;;;;;17.23;75.36;98619.99;106984;1271;24199;-82
2022/08/07 03:00:28;;;;;;;4.50;3.40;;;;;;;17.22;75.86;98621.05;106880;1272;22890;-80
2022/08/07 03:02:59;;;;;;;6.50;3.50;;;;;;;17.30;76.12;98617.95;107106;1271;22652;-82
2022/08/07 03:05:35;;;;;;;7.20;3.40;;;;;;;17.38;75.80;98620.30;106698;1271;22528;-84
2022/08/07 03:08:07;;;;;;;6.20;3.50;;;;;;;17.45;75.55;98621.84;108073;1271;25341;-81
2022/08/07 03:10:42;;;;;;;4.20;3.20;;;;;;;17.54;75.59;98626.42;108157;1271;25375;-82
2022/08/07 03:13:18;;;;;;;4.40;3.70;;;;;;;17.65;75.24;98630.01;107914;1270;22543;-81
2022/08/07 03:15:49;;;;;;;7.90;3.90;;;;;;;17.75;74.73;98626.88;107487;1271;22575;-82
2022/08/07 03:19:16;;;;;;;5.00;3.40;;;;;;;17.75;74.59;98624.98;107242;1271;25910;-81
2022/08/07 03:21:49;;;;;;;4.20;2.90;;;;;;;17.47;74.55;98624.44;107608;1270;24018;-83
2022/08/07 03:24:20;;;;;;;4.70;3.00;;;;;;;17.56;74.85;98624.41;106740;1271;22691;-84
2022/08/07 03:27:02;;;;;;;4.00;3.30;;;;;;;17.66;74.38;98626.05;106243;1271;26619;-83
2022/08/07 03:29:44;;;;;;;;;;;;;;;17.62;74.51;98627.55;106216;1271;22671;-84
2022/08/07 03:32:23;;;;;;;7.30;3.00;;;;;;;17.60;74.73;98626.75;106398;1271;22854;-84
2022/08/07 03:34:59;;;;;;;5.80;3.30;;;;;;;17.55;74.66;98624.83;106516;1271;25343;-83
2022/08/07 03:37:51;;;;;;;9.10;3.90;;;;;;;17.46;74.18;98630.45;106508;1271;23941;-84
2022/08/07 03:45:05;;;;;;;6.10;3.50;;;;;;;17.62;73.78;98630.11;106009;1274;22903;-84
2022/08/07 03:47:34;;;;;;;5.30;3.70;;;;;;;17.73;73.62;98632.35;106309;1269;25305;-83
2022/08/07 03:50:19;;;;;;;6.30;3.50;;;;;;;17.80;73.49;98640.67;106406;1271;25369;-83
2022/08/07 03:52:52;;;;;;;6.20;4.50;;;;;;;17.78;74.04;98642.77;106573;1271;25911;-83
2022/08/07 03:55:22;;;;;;;5.80;4.70;;;;;;;17.77;73.79;98636.92;108107;1271;22545;-82
2022/08/07 03:58:11;;;;;;;5.40;3.40;;;;;;;17.72;73.63;98638.21;106119;1271;26475;-82
2022/08/07 04:01:00;;;;;;;4.50;3.40;;;;;;;17.81;73.74;98638.52;106204;1271;22867;-83
2022/08/07 04:03:30;;;;;;;5.50;4.40;;;;;;;17.82;73.53;98638.65;106223;1271;22536;-82
2022/08/07 04:06:18;;;;;;;8.30;3.70;;;;;;;17.68;73.18;98638.29;106186;1271;22490;-82
2022/08/07 04:09:11;;;;;;;5.30;3.90;;;;;;;17.55;73.69;98642.96;106367;1271;25470;-83
2022/08/07 04:11:45;;;;;;;6.50;4.40;;;;;;;17.54;73.67;98640.98;106129;1271;24274;-83
2022/08/07 04:14:35;;;;;;;8.30;4.40;;;;;;;17.35;73.55;98639.73;106436;1271;22610;-82
2022/08/07 04:17:16;;;;;;;7.50;3.80;;;;;;;17.33;73.38;98639.53;106388;1271;22541;-82
2022/08/07 04:19:51;;;;;;;7.60;4.10;;;;;;;17.28;73.85;98638.41;106219;1271;25351;-83
2022/08/07 04:22:24;;;;;;;5.70;4.40;;;;;;;17.26;73.83;98637.16;106459;1271;25472;-82
2022/08/07 04:25:00;;;;;;;5.30;4.40;;;;;;;17.19;73.35;98641.02;106252;1271;22547;-82
2022/08/07 04:27:32;;;;;;;5.10;4.40;;;;;;;17.09;73.65;98643.98;106138;1271;22710;-83
2022/08/07 04:30:05;;;;;;;6.70;4.40;;;;;;;17.12;74.10;98651.35;106305;1271;22540;-83
2022/08/07 04:32:56;;;;;;;7.10;4.40;;;;;;;17.43;74.94;98646.69;106242;1271;23924;-83
2022/08/07 04:35:27;;;;;;;6.40;4.50;;;;;;;17.74;74.31;98651.02;106389;1271;24126;-83
2022/08/07 04:38:08;;;;;;;7.90;4.60;;;;;;;17.79;73.52;98656.14;106348;1271;25280;-84
2022/08/07 04:40:45;;;;;;;8.40;4.50;;;;;;;17.90;73.79;98653.69;106217;1271;25388;-83
2022/08/07 04:43:31;;;;;;;6.00;4.40;;;;;;;17.89;73.27;98660.71;106143;1271;25307;-83
2022/08/07 04:46:29;;;;;;;5.80;4.70;;;;;;;17.76;73.29;98660.95;106160;1271;22682;-84
2022/08/07 04:49:21;;;;;;;7.20;4.40;;;;;;;17.85;74.09;98666.50;106266;1271;22547;-83
2022/08/07 04:52:22;;;;;;;5.80;4.30;;;;;;;17.95;73.83;98662.83;106157;1271;25194;-83
2022/08/07 04:55:19;;;;;;;5.00;4.30;;;;;;;18.05;73.19;98664.70;106039;1271;24406;-82
2022/08/07 04:58:16;;;;;;;6.70;4.70;;;;;;;18.06;73.25;98669.04;106136;1271;22566;-81
2022/08/07 05:01:16;;;;;;;5.70;4.60;;;;;;;18.06;73.47;98670.85;106060;1271;22547;-82
2022/08/07 05:04:06;;;;;;;7.10;4.80;;;;;;;18.13;73.39;98669.54;106756;1271;22532;-82
2022/08/07 05:06:53;;;;;;;9.20;5.20;;;;;;;18.20;73.94;98666.38;107565;1271;23381;-86
2022/08/07 05:09:37;;;;;;;9.90;5.70;;;;;;;18.38;73.59;98661.71;106136;1271;24269;-87
2022/08/07 05:12:22;;;;;;;7.80;5.30;;;;;;;18.34;73.08;98661.95;106213;1271;24383;-86
2022/08/07 05:15:14;;;;;;;5.70;4.10;;;;;;;18.20;73.48;98657.50;106101;1271;25993;-87
2022/08/07 05:18:00;;;;;;;5.60;3.80;;;;;;;17.98;73.21;98657.36;106143;1271;24256;-87
2022/08/07 05:20:52;;;;;;;5.00;3.30;;;;;;;17.78;73.23;98669.23;106219;1271;22677;-85
2022/08/07 05:23:34;;;;;;;5.10;3.20;;;;;;;17.46;73.26;98665.10;106368;1271;23575;-86
2022/08/07 05:26:04;;;;;;;5.30;3.30;;;;;;;17.33;74.32;98670.55;106074;1274;22584;-85
2022/08/07 05:28:47;;;;;;;5.00;3.20;;;;;;;17.36;74.94;98674.39;106143;1274;22557;-87
2022/08/07 05:31:22;;;;;;;5.70;3.60;;;;;;;17.45;75.23;98674.86;106181;1274;25347;-83
2022/08/07 05:34:04;;;;;;;4.50;3.00;;;;;;;17.48;74.70;98674.48;106111;1273;24252;-83
2022/08/07 05:36:42;;;;;;;8.00;3.60;;;;;;;17.47;75.22;98669.66;106333;1271;25306;-83
2022/08/07 05:39:30;;;;;;;4.70;3.20;;;;;;;17.66;76.58;98674.81;106195;1271;22537;-88
2022/08/07 05:42:19;;;;;;;8.00;3.80;;;;;;;17.74;76.79;98675.16;106132;1271;22556;-86
2022/08/07 05:45:15;;;;;;;5.50;4.00;;;;;;;17.94;75.72;98675.03;106118;1271;22555;-86
2022/08/07 05:48:04;;;;;;;4.50;3.40;;;;;;;17.91;74.90;98676.16;106209;1271;22728;-85
2022/08/07 05:50:40;;;;;;;6.20;4.80;;;;;;;17.85;74.96;98677.79;106220;1271;22526;-85
2022/08/07 05:53:11;;;;;;;5.60;4.70;;;;;;;17.80;76.09;98675.70;106320;1271;25352;-85
2022/08/07 05:56:00;;;;;;;6.20;3.80;;;;;;;18.09;77.77;98678.13;106189;1271;24282;-85
2022/08/07 05:58:37;;;;;;;5.60;4.10;;;;;;;18.23;75.51;98677.09;106118;1273;24217;-84
2022/08/07 06:01:11;;;;;;;7.20;3.90;;;;;;;18.28;76.07;98672.25;106257;1271;22875;-85
2022/08/07 06:03:49;;;;;;;5.90;4.10;;;;;;;18.39;75.70;98677.44;106212;1271;22678;-85
2022/08/07 06:06:25;;;;;;;6.90;3.90;;;;;;;18.30;75.00;98674.04;106118;1271;25373;-84
2022/08/07 06:09:02;;;;;;;5.60;3.60;;;;;;;18.16;74.99;98674.36;106276;1271;25294;-84
2022/08/07 06:11:33;;;;;;;6.30;3.30;;;;;;;18.02;75.39;98673.57;106237;1271;25405;-84
2022/08/07 06:14:03;;;;;;;6.60;3.30;;;;;;;18.00;75.36;98675.89;107200;1274;22836;-85
2022/08/07 06:16:51;;;;;;;5.60;3.40;;;;;;;17.85;75.68;98673.40;106604;1271;23356;-80
2022/08/07 06:19:29;;;;;;;6.40;3.80;;;;;;;17.88;76.12;98674.95;105930;1271;25449;-79
2022/08/07 06:22:18;;;;;;;8.50;3.50;;;;;;;18.07;76.25;98682.02;106187;1271;22688;-80
2022/08/07 06:25:18;;;;;;;12.40;4.30;;;;;;;18.34;76.01;98682.37;106042;1271;22544;-78
2022/08/07 06:27:48;;;;;;;5.30;3.00;;;;;;;18.53;76.17;98685.37;106013;1274;25227;-78
2022/08/07 06:30:30;;;;;;;5.50;3.60;;;;;;;18.82;75.64;98683.98;106102;1271;25341;-80
2022/08/07 06:33:11;;;;;;;5.10;3.50;;;;;;;18.94;75.64;98687.15;105934;1271;25225;-79
2022/08/07 06:35:45;;;;;;;7.80;4.00;;;;;;;19.09;75.51;98691.34;106161;1271;24230;-80
2022/08/07 06:38:34;;;;;;;6.80;3.60;;;;;;;19.20;75.28;98691.74;106023;1271;22688;-79
2022/08/07 06:41:10;;;;;;;5.00;3.70;;;;;;;19.34;75.11;98692.84;106085;1271;23171;-79
2022/08/07 06:43:44;;;;;;;4.70;3.10;;;;;;;19.36;74.10;98691.66;105928;1271;24517;-80
2022/08/07 06:46:33;;;;;;;6.00;3.10;;;;;;;19.27;73.82;98691.45;105901;1270;22626;-80
2022/08/07 06:49:03;;;;;;;6.40;3.10;;;;;;;19.31;74.03;98689.06;105924;1271;25518;-79
2022/08/07 06:51:38;;;;;;;5.60;3.30;;;;;;;19.37;73.37;98691.38;106041;1271;25341;-79
2022/08/07 06:54:19;;;;;;;5.80;3.40;;;;;;;19.33;73.06;98691.04;106097;1271;25306;-79
2022/08/07 06:57:08;;;;;;;5.70;3.20;;;;;;;19.36;73.28;98689.08;106118;1271;22704;-80
2022/08/07 06:59:40;;;;;;;6.00;2.70;;;;;;;19.50;72.75;98695.30;106124;1271;22550;-80
2022/08/07 07:02:29;;;;;;;7.50;3.10;;;;;;;19.52;72.58;98696.30;106133;1271;24303;-78
2022/08/07 07:05:20;;;;;;;5.10;2.90;;;;;;;19.56;72.37;98697.67;106238;1271;24257;-79
2022/08/07 07:08:11;;;;;;;4.50;3.00;;;;;;;19.63;72.20;98701.10;106103;1271;22544;-80
2022/08/07 07:10:51;;;;;;;3.90;2.50;;;;;;;19.59;72.18;98702.86;106039;1271;25334;-78
2022/08/07 07:13:39;;;;;;;4.70;2.90;;;;;;;19.48;71.72;98699.13;106081;1271;25247;-80
2022/08/07 07:16:35;;;;;;;5.30;3.20;;;;;;;19.48;71.75;98700.98;105901;1271;24409;-79
2022/08/07 07:19:27;;;;;;;10.10;3.20;;;;;;;19.51;71.71;98698.47;106073;1269;22561;-80
2022/08/07 07:22:17;;;;;;;10.90;4.00;;;;;;;19.53;71.89;98700.46;106040;1271;22874;-81
2022/08/07 07:25:07;;;;;;;5.80;3.50;;;;;;;19.49;71.53;98701.58;106217;1271;25407;-80
2022/08/07 07:28:26;;;;;;;4.40;2.90;;;;;;;19.39;71.11;98706.29;106151;1271;22729;-79
2022/08/07 07:31:42;;;;;;;6.80;3.60;;;;;;;19.35;71.38;98702.40;105692;1277;22889;-79
2022/08/07 07:34:21;;;;;;;4.00;2.60;;;;;;;19.42;70.52;98701.25;105191;1283;23375;-81
2022/08/07 07:37:00;;;;;;;6.20;2.90;;;;;;;19.36;69.79;98710.01;105214;1283;25362;-81
2022/08/07 07:39:45;;;;;;;3.70;2.10;;;;;;;19.28;69.38;98706.70;105350;1283;23085;-81
2022/08/07 07:42:26;;;;;;;3.40;2.00;;;;;;;19.25;66.95;98709.25;105430;1283;25284;-81
2022/08/07 07:45:03;;;;;;;3.10;1.80;;;;;;;19.15;66.55;98706.39;105232;1283;24255;-81
2022/08/07 07:47:35;;;;;;;4.70;1.80;;;;;;;19.17;65.02;98710.13;105221;1283;22546;-81
2022/08/07 07:50:21;;;;;;;2.80;2.10;;;;;;;19.17;63.42;98709.41;105177;1283;22639;-81
2022/08/07 07:53:07;;;;;;;3.30;2.00;;;;;;;19.20;63.70;98711.71;105182;1283;23947;-80
2022/08/07 07:55:51;;;;;;;;;;;;;;;19.19;61.53;98709.59;105296;1283;23551;-81
2022/08/07 07:58:28;;;;;;;2.90;1.80;;;;;;;19.18;62.49;98707.89;105133;1282;22636;-85
2022/08/07 08:00:58;;;;;;;4.00;2.10;;;;;;;19.24;63.04;98704.38;105271;1283;25482;-84
2022/08/07 08:03:29;;;;;;;3.10;2.00;;;;;;;19.29;61.73;98705.41;105204;1283;22728;-83
2022/08/07 08:06:18;;;;;;;2.70;1.80;;;;;;;19.26;61.26;98703.02;105165;1283;22540;-85
2022/08/07 08:08:48;;;;;;;5.10;2.00;;;;;;;19.29;61.49;98699.17;105741;1279;22664;-85
2022/08/07 08:11:19;;;;;;;4.60;2.20;;;;;;;19.36;60.81;98701.11;106075;1274;25204;-86
2022/08/07 08:14:07;;;;;;;5.70;2.30;;;;;;;19.41;60.47;98705.48;106433;1271;25477;-87
2022/08/07 08:16:48;;;;;;;4.60;2.30;;;;;;;19.46;60.89;98701.77;106677;1271;22704;-86
2022/08/07 08:19:26;;;;;;;6.90;2.20;;;;;;;19.51;59.22;98704.30;106995;1271;25513;-87
2022/08/07 08:28:20;;;;;;;4.20;2.00;;;;;;;19.78;57.56;98705.70;106195;1271;22539;-89
2022/08/07 08:31:11;;;;;;;6.70;2.80;;;;;;;19.89;57.30;98708.55;106189;1271;22544;-88
2022/08/07 08:33:53;;;;;;;3.50;2.10;;;;;;;19.97;56.10;98708.91;106330;1271;25448;-88
2022/08/07 08:36:29;;;;;;;7.60;2.30;;;;;;;19.97;55.15;98703.75;106201;1271;24355;-89
2022/08/07 08:39:00;;;;;;;3.30;2.10;;;;;;;20.01;55.79;98707.39;106299;1271;24262;-87
2022/08/07 08:41:54;;;;;;;3.10;2.10;;;;;;;20.13;56.45;98711.70;106187;1271;24080;-88
2022/08/07 08:44:53;;;;;;;4.10;1.70;;;;;;;20.35;56.28;98709.17;106216;1271;22694;-87
2022/08/07 08:48:02;;;;;;;4.20;2.30;;;;;;;20.50;55.76;98701.03;106154;1271;22609;-89
2022/08/07 08:50:39;;;;;;;4.00;2.10;;;;;;;20.59;55.31;98699.16;106078;1271;25499;-86
2022/08/07 08:53:32;;;;;;;5.00;2.00;;;;;;;20.52;54.60;98696.48;106288;1271;25399;-87
2022/08/07 08:56:26;;;;;;;4.90;1.80;;;;;;;20.53;54.82;98694.71;106277;1271;22616;-86
2022/08/07 08:59:09;;;;;;;4.70;1.90;;;;;;;20.62;54.86;98696.88;106156;1271;22553;-88
2022/08/07 09:02:04;;;;;;;4.40;1.90;;;;;;;20.76;55.26;98691.81;106217;1271;24338;-87
2022/08/07 09:04:46;;;;;;;2.90;1.70;;;;;;;20.95;54.57;98701.37;106222;1271;23913;-87
2022/08/07 09:07:35;;;;;;;4.40;1.60;;;;;;;21.06;53.85;98702.93;106116;1271;24273;-88
2022/08/07 09:10:31;;;;;;;4.20;1.70;;;;;;;21.25;55.06;98701.81;106181;1271;26641;-88
2022/08/07 09:13:09;;;;;;;3.10;1.90;;;;;;;21.46;53.60;98701.88;106140;1271;22688;-87
2022/08/07 09:16:07;;;;;;;4.30;2.10;;;;;;;21.61;54.09;98694.66;106178;1271;23165;-88
2022/08/07 09:19:09;;;;;;;4.30;2.30;;;;;;;21.74;53.96;98687.23;106138;1271;22541;-88
2022/08/07 09:22:39;;;;;;;3.40;2.10;;;;;;;21.85;52.18;98685.14;106170;1271;23118;-85
2022/08/07 09:26:00;;;;;;;6.10;1.80;;;;;;;21.90;53.45;98685.97;106254;1271;22525;-87
2022/08/07 09:28:40;;;;;;;7.30;1.80;;;;;;;22.09;52.62;98675.45;106095;1271;22693;-87
2022/08/07 09:31:43;;;;;;;3.20;1.70;;;;;;;22.22;52.73;98670.92;106192;1271;22645;-87
2022/08/07 09:34:42;;;;;;;4.30;2.00;;;;;;;22.35;52.55;98667.76;106103;1271;25627;-86
2022/08/07 09:37:44;;;;;;;3.20;2.00;;;;;;;22.29;52.71;98668.19;106126;1271;24253;-86
2022/08/07 09:40:53;;;;;;;4.70;1.90;;;;;;;22.12;51.85;98662.98;106234;1271;25204;-88
2022/08/07 09:43:39;;;;;;;5.50;2.00;;;;;;;21.93;51.49;98661.82;106202;1271;24266;-89
2022/08/07 09:46:52;;;;;;;6.00;2.20;;;;;;;21.78;51.99;98664.99;106408;1271;24742;-86
2022/08/07 09:49:43;;;;;;;3.90;2.10;;;;;;;21.55;51.65;98664.20;106289;1271;23168;-86
2022/08/07 09:52:46;;;;;;;5.70;2.00;;;;;;;21.29;52.17;98665.38;104963;1271;25198;-87
2022/08/07 09:55:48;;;;;;;6.10;2.40;;;;;;;21.14;52.14;98665.55;106597;1271;22574;-87
2022/08/07 09:58:43;;;;;;;4.20;2.60;;;;;;;20.99;52.15;98663.50;106093;1271;22486;-86
2022/08/07 10:02:02;;;;;;;3.80;2.50;;;;;;;20.82;52.56;98661.33;106246;1271;24417;-86
2022/08/07 10:04:52;;;;;;;6.40;2.70;;;;;;;20.80;52.83;98659.17;106246;1271;22817;-87
2022/08/07 10:07:29;;;;;;;6.50;2.70;;;;;;;20.83;52.75;98659.56;106121;1271;25300;-86
2022/08/07 10:10:47;;;;;;;4.00;2.50;;;;;;;20.80;52.94;98661.50;106287;1271;25234;-86
2022/08/07 10:13:54;;;;;;;5.40;2.40;;;;;;;20.71;53.53;98660.94;106198;1271;22693;-86
2022/08/07 10:16:57;;;;;;;3.90;2.60;;;;;;;20.69;53.59;98658.53;106111;1271;24326;-88
2022/08/07 10:19:45;;;;;;;5.40;2.70;;;;;;;20.52;53.88;98653.31;106145;1271;22876;-85
2022/08/07 10:22:20;;;;;;;6.30;2.70;;;;;;;20.52;54.09;98650.81;106409;1271;22584;-84
2022/08/07 10:25:31;;;;;;;5.90;2.90;;;;;;;20.52;54.28;98654.94;106230;1271;22569;-87
2022/08/07 10:28:22;;;;;;;4.00;2.40;;;;;;;20.49;54.35;98647.18;106650;1274;22613;-88
2022/08/07 10:31:02;;;;;;;4.00;2.50;;;;;;;20.42;54.56;98646.15;106184;1271;24361;-87
2022/08/07 10:34:01;;;;;;;5.40;2.60;;;;;;;20.54;55.00;98643.38;106150;1271;25310;-88
2022/08/07 10:37:09;;;;;;;5.10;2.60;;;;;;;20.73;55.04;98642.92;106243;1271;22567;-89
2022/08/07 10:40:17;;;;;;;4.00;2.30;;;;;;;20.83;55.10;98639.83;106207;1270;25404;-87
2022/08/07 10:43:26;;;;;;;5.50;2.00;;;;;;;21.00;55.23;98636.21;105887;1277;22624;-86
2022/08/07 10:46:12;;;;;;;5.40;2.40;;;;;;;21.12;55.07;98637.57;105771;1278;25169;-86
2022/08/07 10:48:47;;;;;;;5.80;2.20;;;;;;;21.21;54.79;98637.97;105822;1277;24251;-87
2022/08/07 10:51:48;;;;;;;3.50;2.10;;;;;;;21.22;54.71;98632.13;105649;1278;25281;-86
2022/08/07 10:54:45;;;;;;;3.30;2.00;;;;;;;21.20;54.78;98624.95;105955;1277;22624;-86
2022/08/07 10:57:42;;;;;;;4.20;1.90;;;;;;;21.22;54.24;98625.07;106106;1277;25771;-86
2022/08/07 11:00:12;;;;;;;4.40;2.40;;;;;;;21.19;54.65;98621.71;105774;1277;22721;-87
2022/08/07 11:03:15;;;;;;;4.40;2.10;;;;;;;21.21;54.45;98622.00;105812;1277;23078;-86
2022/08/07 11:05:53;;;;;;;4.20;2.30;;;;;;;21.17;54.33;98618.52;105784;1277;22681;-86
2022/08/07 11:08:46;;;;;;;4.50;2.50;;;;;;;21.14;54.36;98615.69;105728;1280;25345;-87
2022/08/07 11:11:35;;;;;;;4.00;2.30;;;;;;;21.09;54.19;98618.06;105902;1277;22906;-88
2022/08/07 11:14:32;;;;;;;3.80;2.30;;;;;;;21.02;54.29;98615.98;106008;1273;24207;-86
2022/08/07 11:17:32;;;;;;;5.90;2.40;;;;;;;20.88;54.06;98618.98;106166;1271;22689;-87
2022/08/07 11:20:19;;;;;;;4.80;2.40;;;;;;;20.79;54.21;98618.52;106200;1271;25397;-88
2022/08/07 11:22:56;;;;;;;6.10;2.50;;;;;;;20.70;54.30;98618.01;106163;1271;22637;-86
2022/08/07 11:25:35;;;;;;;9.20;2.60;;;;;;;20.63;54.41;98616.50;106103;1271;26261;-87
2022/08/07 11:28:29;;;;;;;5.90;2.60;;;;;;;20.64;54.69;98615.52;106161;1271;24666;-88
2022/08/07 11:31:11;;;;;;;5.40;2.40;;;;;;;20.67;54.64;98609.78;106255;1271;22544;-87
2022/08/07 11:33:56;;;;;;;5.40;2.10;;;;;;;20.70;54.43;98613.23;106234;1271;22722;-87
2022/08/07 11:36:36;;;;;;;5.50;2.30;;;;;;;20.73;54.42;98611.39;106175;1272;24345;-87
2022/08/07 11:39:12;;;;;;;3.90;2.50;;;;;;;20.75;54.19;98609.17;106237;1271;25462;-87
2022/08/07 11:41:55;;;;;;;6.20;2.40;;;;;;;20.76;54.24;98607.55;106166;1271;25489;-87
2022/08/07 11:44:45;;;;;;;6.20;2.50;;;;;;;20.81;54.34;98607.05;106155;1271;22553;-87
2022/08/07 11:47:39;;;;;;;5.10;2.40;;;;;;;20.90;54.33;98600.42;106233;1271;22553;-87
2022/08/07 11:50:35;;;;;;;5.30;2.40;;;;;;;21.05;54.25;98595.27;106232;1271;22614;-88
2022/08/07 11:53:39;;;;;;;7.20;2.50;;;;;;;21.17;53.57;98593.92;106182;1271;23924;-87
2022/08/07 11:56:40;;;;;;;3.90;2.50;;;;;;;21.25;53.68;98589.52;106135;1274;25625;-86
2022/08/07 11:59:31;;;;;;;4.80;2.40;;;;;;;21.36;53.54;98588.23;106185;1271;22525;-88
2022/08/07 12:02:44;;;;;;;4.60;2.50;;;;;;;21.50;53.68;98589.23;106166;1271;25113;-86
2022/08/07 12:05:26;;;;;;;5.10;2.60;;;;;;;21.67;53.44;98586.42;106354;1271;24189;-90
2022/08/07 12:08:15;;;;;;;4.00;2.30;;;;;;;21.76;52.61;98581.69;106604;1271;22781;-87
2022/08/07 12:11:26;;;;;;;4.70;2.10;;;;;;;21.78;52.87;98584.34;106398;1271;22620;-87
2022/08/07 12:14:09;;;;;;;5.10;2.10;;;;;;;21.95;53.03;98578.85;106464;1271;22543;-87
2022/08/07 12:16:44;;;;;;;6.70;2.20;;;;;;;22.06;52.96;98569.69;106150;1271;24112;-87
2022/08/07 12:19:58;;;;;;;3.00;2.10;;;;;;;22.13;52.64;98569.06;106178;1271;25455;-87
2022/08/07 12:22:45;;;;;;;4.30;2.10;;;;;;;22.22;52.69;98571.86;106234;1271;24393;-87
2022/08/07 12:25:54;;;;;;;5.70;2.20;;;;;;;22.38;52.26;98571.35;106153;1271;24283;-87
2022/08/07 12:28:46;;;;;;;4.30;2.40;;;;;;;22.45;52.05;98568.19;106112;1271;25458;-87
2022/08/07 12:31:30;;;;;;;4.40;2.10;;;;;;;22.61;52.26;98565.60;106162;1271;22538;-89
2022/08/07 12:34:20;;;;;;;5.90;2.20;;;;;;;22.84;51.96;98560.15;106120;1271;22563;-85
2022/08/07 12:36:52;;;;;;;3.40;2.20;;;;;;;22.95;51.07;98558.73;107067;1271;23836;-88
2022/08/07 12:39:22;;;;;;;4.70;2.10;;;;;;;23.02;50.97;98560.20;107546;1271;26590;-87
2022/08/07 12:42:11;;;;;;;3.80;2.20;;;;;;;23.17;50.82;98557.39;106162;1271;22633;-87
2022/08/07 12:44:45;;;;;;;3.40;2.30;;;;;;;23.22;50.85;98560.48;106223;1274;22550;-88
2022/08/07 12:47:13;;;;;;;3.90;1.90;;;;;;;23.16;50.37;98557.30;106194;1271;23269;-87
2022/08/07 12:50:31;;;;;;;3.70;2.00;;;;;;;23.08;50.15;98558.20;106274;1271;24392;-87
2022/08/07 12:53:17;;;;;;;3.60;2.10;;;;;;;23.10;50.06;98555.95;106155;1271;25337;-88
2022/08/07 12:56:00;;;;;;;4.80;2.40;;;;;;;23.19;49.99;98547.78;106230;1271;22540;-87
2022/08/07 12:58:36;;;;;;;5.10;2.70;;;;;;;23.29;49.67;98549.75;106258;1271;24080;-88